createdAt,value
2018-09-06T00:00:18.497Z,13.30
2018-09-06T00:02:46.900Z,11.10
2018-09-06T00:05:15.349Z,11.60
2018-09-06T00:07:43.816Z,11.20
2018-09-06T00:10:12.265Z,11.10
2018-09-06T00:12:40.824Z,11.33
2018-09-06T00:15:09.251Z,11.07
2018-09-06T00:17:37.646Z,11.07
2018-09-06T00:20:06.057Z,11.50
2018-09-06T00:22:34.435Z,11.47
2018-09-06T00:25:02.855Z,10.63
2018-09-06T00:27:31.280Z,10.27
2018-09-06T00:29:59.685Z,11.10
2018-09-06T00:32:28.271Z,11.60
2018-09-06T00:34:56.664Z,10.87
2018-09-06T00:37:25.102Z,11.30
2018-09-06T00:39:53.904Z,12.87
2018-09-06T00:42:22.373Z,13.63
2018-09-06T00:44:51.004Z,12.87
2018-09-06T00:47:19.410Z,12.57
2018-09-06T00:49:47.782Z,13.97
2018-09-06T00:52:16.216Z,14.30
2018-09-06T00:54:44.693Z,13.73
2018-09-06T00:57:13.207Z,13.37
2018-09-06T00:59:41.597Z,13.43
2018-09-06T01:02:10.159Z,13.60
2018-09-06T01:04:38.566Z,13.60
2018-09-06T01:07:07.039Z,14.13
2018-09-06T01:09:35.602Z,12.50
2018-09-06T01:12:04.016Z,12.37
2018-09-06T01:14:32.409Z,13.10
2018-09-06T01:17:00.820Z,13.00
2018-09-06T01:19:29.252Z,15.00
2018-09-06T01:21:57.825Z,12.57
2018-09-06T01:24:26.204Z,13.00
2018-09-06T01:26:54.627Z,13.63
2018-09-06T01:29:23.227Z,15.50
2018-09-06T01:31:51.629Z,16.20
2018-09-06T01:34:20.004Z,14.10
2018-09-06T01:36:48.623Z,15.63
2018-09-06T01:39:17.162Z,14.57
2018-09-06T01:41:45.703Z,15.37
2018-09-06T01:44:14.108Z,15.03
2018-09-06T01:46:42.492Z,14.50
2018-09-06T01:49:11.063Z,13.73
2018-09-06T01:51:39.467Z,14.70
2018-09-06T01:54:07.918Z,12.97
2018-09-06T01:56:36.289Z,14.07
2018-09-06T01:59:04.703Z,15.03
2018-09-06T02:01:33.080Z,15.13
2018-09-06T02:04:01.508Z,14.37
2018-09-06T02:06:29.954Z,14.13
2018-09-06T02:08:58.352Z,14.90
2018-09-06T02:11:26.697Z,15.40
2018-09-06T02:13:55.092Z,14.70
2018-09-06T02:16:23.461Z,16.93
2018-09-06T02:18:51.820Z,14.77
2018-09-06T02:21:20.229Z,15.30
2018-09-06T02:23:48.620Z,17.00
2018-09-06T02:26:17.138Z,16.80
2018-09-06T02:28:45.513Z,16.60
2018-09-06T02:31:14.183Z,14.83
2018-09-06T02:33:42.568Z,15.80
2018-09-06T02:36:10.925Z,15.00
2018-09-06T02:38:39.310Z,17.00
2018-09-06T02:41:07.766Z,15.00
2018-09-06T02:43:36.142Z,15.30
2018-09-06T02:46:04.707Z,15.57
2018-09-06T02:48:40.373Z,15.60
2018-09-06T02:51:14.050Z,14.80
2018-09-06T02:53:42.489Z,16.00
2018-09-06T02:56:11.511Z,15.57
2018-09-06T02:58:40.161Z,15.00
2018-09-06T03:01:08.704Z,16.10
2018-09-06T03:03:37.123Z,14.73
2018-09-06T03:06:05.601Z,14.53
2018-09-06T03:08:34.039Z,15.10
2018-09-06T03:11:07.895Z,14.20
2018-09-06T03:13:36.307Z,13.37
2018-09-06T03:16:04.685Z,14.93
2018-09-06T03:18:33.039Z,15.17
2018-09-06T03:21:01.448Z,15.40
2018-09-06T03:23:29.818Z,15.63
2018-09-06T03:25:58.166Z,14.57
2018-09-06T03:28:26.554Z,14.27
2018-09-06T03:30:54.915Z,15.07
2018-09-06T03:33:23.324Z,14.83
2018-09-06T03:35:51.868Z,13.70
2018-09-06T03:38:20.199Z,15.37
2018-09-06T03:40:48.676Z,14.27
2018-09-06T03:43:17.050Z,13.57
2018-09-06T03:45:45.414Z,15.07
2018-09-06T03:48:13.899Z,15.47
2018-09-06T03:50:42.229Z,14.60
2018-09-06T03:53:10.616Z,15.40
2018-09-06T03:55:38.992Z,15.83
2018-09-06T03:58:07.397Z,15.43
2018-09-06T04:00:35.787Z,15.83
2018-09-06T04:03:04.153Z,16.00
2018-09-06T04:05:32.587Z,15.77
2018-09-06T04:08:00.934Z,16.90
2018-09-06T04:10:29.478Z,17.00
2018-09-06T04:12:57.853Z,17.03
2018-09-06T04:15:26.186Z,15.93
2018-09-06T04:17:54.554Z,17.43
2018-09-06T04:20:22.933Z,16.23
2018-09-06T04:22:52.551Z,17.40
2018-09-06T04:25:20.965Z,16.97
2018-09-06T04:27:49.735Z,18.03
2018-09-06T04:30:18.150Z,17.10
2018-09-06T04:32:46.594Z,17.07
2018-09-06T04:35:14.986Z,16.93
2018-09-06T04:37:43.534Z,16.83
2018-09-06T04:40:11.890Z,18.00
2018-09-06T04:42:40.286Z,17.93
2018-09-06T04:45:08.790Z,17.37
2018-09-06T04:47:37.143Z,16.50
2018-09-06T04:50:05.516Z,16.90
2018-09-06T04:52:33.913Z,16.40
2018-09-06T04:55:02.263Z,16.60
2018-09-06T04:57:30.622Z,17.40
2018-09-06T04:59:59.039Z,17.30
2018-09-06T05:02:27.360Z,16.53
2018-09-06T05:04:55.701Z,16.80
2018-09-06T05:07:24.106Z,16.70
2018-09-06T05:09:52.445Z,15.37
2018-09-06T05:12:20.849Z,17.50
2018-09-06T05:14:49.270Z,17.13
2018-09-06T05:17:17.637Z,16.73
2018-09-06T05:19:46.048Z,17.50
2018-09-06T05:22:14.425Z,17.57
2018-09-06T05:24:42.842Z,16.73
2018-09-06T05:27:11.194Z,16.63
2018-09-06T05:29:39.542Z,18.80
2018-09-06T05:32:08.047Z,17.60
2018-09-06T05:34:36.415Z,16.90
2018-09-06T05:37:05.393Z,18.50
2018-09-06T05:39:34.200Z,19.07
2018-09-06T05:42:02.569Z,15.77
2018-09-06T05:44:30.946Z,18.93
2018-09-06T05:46:59.362Z,18.07
2018-09-06T05:49:27.713Z,18.60
2018-09-06T05:51:56.071Z,17.73
2018-09-06T05:54:24.586Z,16.33
2018-09-06T05:56:52.946Z,18.50
2018-09-06T05:59:21.318Z,17.57
2018-09-06T06:01:49.714Z,30.63
2018-09-06T06:04:18.104Z,36.03
2018-09-06T06:06:46.466Z,22.90
2018-09-06T06:09:14.898Z,18.33
2018-09-06T06:11:43.291Z,19.20
2018-09-06T06:14:11.631Z,18.97
2018-09-06T06:16:40.158Z,17.93
2018-09-06T06:19:08.530Z,19.00
2018-09-06T06:21:36.963Z,17.93
2018-09-06T06:24:05.370Z,19.37
2018-09-06T06:26:33.737Z,19.53
2018-09-06T06:29:02.131Z,18.13
2018-09-06T06:31:30.475Z,18.57
2018-09-06T06:33:59.063Z,19.00
2018-09-06T06:36:27.377Z,19.37
2018-09-06T06:38:55.723Z,19.03
2018-09-06T06:41:24.187Z,19.43
2018-09-06T06:43:52.590Z,20.53
2018-09-06T06:46:20.966Z,22.07
2018-09-06T06:48:49.539Z,19.07
2018-09-06T06:51:17.895Z,19.93
2018-09-06T06:53:46.254Z,19.33
2018-09-06T06:56:14.766Z,20.17
2018-09-06T06:58:43.320Z,20.57
2018-09-06T07:01:11.481Z,19.67
2018-09-06T07:03:39.991Z,19.77
2018-09-06T07:06:08.345Z,19.73
2018-09-06T07:08:36.684Z,19.70
2018-09-06T07:11:05.090Z,19.70
2018-09-06T07:13:33.481Z,20.10
2018-09-06T07:16:02.101Z,20.77
2018-09-06T07:18:30.559Z,20.20
2018-09-06T07:20:58.945Z,19.70
2018-09-06T07:23:27.352Z,21.33
2018-09-06T07:25:55.763Z,19.43
2018-09-06T07:28:24.139Z,21.27
2018-09-06T07:30:52.598Z,21.90
2018-09-06T07:33:20.970Z,21.20
2018-09-06T07:35:49.551Z,20.23
2018-09-06T07:38:17.929Z,20.27
2018-09-06T07:40:46.277Z,20.57
2018-09-06T07:43:14.687Z,20.90
2018-09-06T07:45:43.136Z,21.03
2018-09-06T07:48:11.479Z,20.57
2018-09-06T07:50:40.011Z,18.83
2018-09-06T07:53:08.404Z,19.57
2018-09-06T07:55:36.770Z,20.70
2018-09-06T07:58:05.321Z,19.83
2018-09-06T08:00:33.677Z,20.67
2018-09-06T08:03:02.083Z,20.40
2018-09-06T08:05:30.543Z,20.53
2018-09-06T08:07:58.931Z,21.10
2018-09-06T08:10:27.294Z,21.20
2018-09-06T08:12:55.824Z,21.33
2018-09-06T08:15:24.222Z,20.13
2018-09-06T08:17:52.602Z,19.20
2018-09-06T08:20:20.995Z,20.63
2018-09-06T08:22:49.370Z,19.93
2018-09-06T08:25:17.745Z,19.43
2018-09-06T08:27:46.125Z,19.53
2018-09-06T08:30:14.474Z,20.87
2018-09-06T08:32:42.856Z,19.67
2018-09-06T08:35:11.286Z,19.90
2018-09-06T08:37:39.628Z,18.97
2018-09-06T08:40:08.066Z,18.97
2018-09-06T08:42:36.423Z,20.57
2018-09-06T08:45:04.866Z,19.93
2018-09-06T08:47:33.484Z,19.80
2018-09-06T08:50:01.818Z,19.07
2018-09-06T08:52:30.294Z,19.57
2018-09-06T08:54:58.810Z,20.10
2018-09-06T08:57:27.162Z,19.97
2018-09-06T08:59:55.514Z,20.43
2018-09-06T09:02:23.980Z,19.17
2018-09-06T09:04:52.331Z,29.37
2018-09-06T09:07:20.908Z,33.10
2018-09-06T09:09:49.284Z,25.13
2018-09-06T09:12:17.722Z,21.13
2018-09-06T09:14:46.234Z,22.10
2018-09-06T09:17:14.583Z,20.13
2018-09-06T09:19:42.964Z,19.90
2018-09-06T09:22:11.639Z,20.97
2018-09-06T09:24:39.929Z,20.17
2018-09-06T09:27:08.298Z,20.73
2018-09-06T09:29:36.890Z,21.17
2018-09-06T09:32:05.246Z,20.97
2018-09-06T09:34:33.660Z,21.00
2018-09-06T09:37:02.124Z,18.60
2018-09-06T09:39:30.478Z,18.83
2018-09-06T09:41:58.910Z,18.60
2018-09-06T09:44:27.535Z,17.97
2018-09-06T09:49:23.499Z,20.07
2018-09-06T09:51:51.898Z,20.57
2018-09-06T09:54:20.263Z,19.63
2018-09-06T09:56:48.973Z,21.67
2018-09-06T09:59:17.326Z,25.63
2018-09-06T10:01:51.236Z,25.57
2018-09-06T10:05:24.426Z,26.47
2018-09-06T10:07:56.884Z,28.67
2018-09-06T10:10:25.645Z,30.13
2018-09-06T10:12:54.033Z,29.73
2018-09-06T10:15:22.592Z,28.17
2018-09-06T10:17:51.001Z,28.77
2018-09-06T10:20:19.438Z,28.50
2018-09-06T10:22:47.817Z,30.00
2018-09-06T10:25:16.159Z,29.83
2018-09-06T10:27:44.534Z,30.80
2018-09-06T10:30:12.970Z,30.17
2018-09-06T10:32:41.354Z,29.27
2018-09-06T10:35:09.691Z,29.73
2018-09-06T10:37:38.126Z,28.87
2018-09-06T10:40:06.702Z,28.70
2018-09-06T10:42:34.954Z,26.87
2018-09-06T10:45:03.439Z,28.97
2018-09-06T10:47:31.790Z,27.33
2018-09-06T10:50:00.183Z,26.00
2018-09-06T10:52:28.537Z,25.87
2018-09-06T10:54:56.929Z,26.03
2018-09-06T10:57:25.275Z,26.30
2018-09-06T10:59:53.868Z,50.10
2018-09-06T11:02:23.162Z,30.80
2018-09-06T11:04:51.566Z,25.23
2018-09-06T11:07:19.944Z,23.23
2018-09-06T11:09:48.369Z,26.57
2018-09-06T11:12:16.712Z,25.03
2018-09-06T11:14:45.178Z,22.20
2018-09-06T11:17:13.550Z,21.23
2018-09-06T11:19:41.975Z,22.83
2018-09-06T11:22:10.614Z,23.20
2018-09-06T11:24:38.705Z,21.83
2018-09-06T11:27:07.069Z,20.27
2018-09-06T11:29:35.456Z,20.97
2018-09-06T11:32:03.825Z,19.77
2018-09-06T11:34:32.617Z,19.47
2018-09-06T11:37:00.974Z,20.60
2018-09-06T11:39:29.527Z,21.93
2018-09-06T11:41:57.922Z,23.23
2018-09-06T11:44:26.277Z,19.67
2018-09-06T11:46:54.723Z,14.00
2018-09-06T11:49:23.054Z,11.87
2018-09-06T11:51:51.486Z,10.10
2018-09-06T11:54:19.939Z,8.33
2018-09-06T11:56:48.318Z,6.87
2018-09-06T11:59:16.690Z,6.60
2018-09-06T12:01:45.047Z,7.30
2018-09-06T12:04:13.497Z,6.63
2018-09-06T12:06:41.887Z,6.03
2018-09-06T12:09:10.328Z,6.10
2018-09-06T12:11:38.696Z,4.90
2018-09-06T12:14:07.175Z,5.47
2018-09-06T12:16:35.532Z,5.17
2018-09-06T12:19:04.657Z,5.60
2018-09-06T12:21:33.086Z,5.70
2018-09-06T12:24:01.483Z,6.33
2018-09-06T12:26:29.805Z,6.27
2018-09-06T12:28:58.317Z,3.90
2018-09-06T12:31:26.693Z,5.00
2018-09-06T12:33:55.063Z,4.53
2018-09-06T12:36:23.457Z,5.20
2018-09-06T12:38:51.799Z,4.77
2018-09-06T12:41:20.186Z,4.50
2018-09-06T12:43:48.586Z,4.83
2018-09-06T12:46:16.985Z,5.50
2018-09-06T12:48:45.419Z,4.97
2018-09-06T12:51:13.791Z,5.27
2018-09-06T12:53:42.196Z,4.50
2018-09-06T12:56:10.737Z,5.27
2018-09-06T12:58:39.087Z,5.07
2018-09-06T13:01:07.477Z,4.70
2018-09-06T13:03:35.854Z,4.33
2018-09-06T13:06:04.218Z,8.00
2018-09-06T13:08:32.565Z,29.23
2018-09-06T13:11:01.163Z,8.47
2018-09-06T13:13:29.546Z,5.27
2018-09-06T13:15:57.880Z,4.73
2018-09-06T13:18:26.433Z,5.47
2018-09-06T13:20:54.740Z,6.77
2018-09-06T13:23:23.097Z,7.00
2018-09-06T13:25:51.479Z,7.53
2018-09-06T13:28:19.854Z,7.40
2018-09-06T13:30:48.199Z,5.87
2018-09-06T13:33:16.598Z,6.90
2018-09-06T13:35:45.023Z,8.20
2018-09-06T13:38:13.341Z,8.60
2018-09-06T13:40:42.446Z,10.77
2018-09-06T13:43:10.786Z,9.10
2018-09-06T13:45:39.217Z,9.57
2018-09-06T13:48:07.812Z,10.93
2018-09-06T13:50:36.157Z,10.43
2018-09-06T13:53:04.538Z,10.60
2018-09-06T13:55:33.122Z,10.07
2018-09-06T13:58:01.569Z,10.33
2018-09-06T14:00:29.915Z,9.77
2018-09-06T14:02:58.319Z,10.17
2018-09-06T14:05:26.705Z,10.10
2018-09-06T14:07:55.095Z,9.40
2018-09-06T14:10:23.501Z,10.07
2018-09-06T14:12:51.897Z,9.53
2018-09-06T14:15:20.270Z,10.20
2018-09-06T14:17:48.637Z,11.30
2018-09-06T14:20:17.195Z,11.67
2018-09-06T14:22:45.567Z,11.57
2018-09-06T14:25:13.939Z,35.97
2018-09-06T14:27:42.322Z,27.80
2018-09-06T14:30:10.692Z,14.20
2018-09-06T14:32:39.102Z,12.30
2018-09-06T14:35:07.505Z,11.43
2018-09-06T14:37:35.869Z,12.30
2018-09-06T14:40:04.255Z,11.93
2018-09-06T14:42:32.639Z,11.00
2018-09-06T14:45:01.017Z,12.33
2018-09-06T14:47:29.359Z,11.80
2018-09-06T14:49:57.815Z,15.47
2018-09-06T14:52:26.175Z,14.33
2018-09-06T14:54:54.527Z,15.20
2018-09-06T14:57:23.094Z,15.90
2018-09-06T14:59:51.452Z,15.43
2018-09-06T15:02:19.873Z,16.40
2018-09-06T15:04:48.242Z,17.87
2018-09-06T15:07:16.610Z,16.20
2018-09-06T15:09:44.989Z,16.20
2018-09-06T15:12:13.399Z,18.00
2018-09-06T15:14:41.745Z,17.90
2018-09-06T15:17:10.134Z,17.87
2018-09-06T15:19:38.481Z,17.57
2018-09-06T15:22:07.407Z,17.47
2018-09-06T15:24:35.800Z,16.00
2018-09-06T15:27:04.202Z,20.10
2018-09-06T15:29:32.790Z,15.40
2018-09-06T15:32:01.206Z,16.70
2018-09-06T15:34:29.614Z,17.10
2018-09-06T15:36:58.052Z,16.87
2018-09-06T15:39:26.444Z,17.67
2018-09-06T15:41:54.795Z,18.00
2018-09-06T15:44:23.321Z,17.70
2018-09-06T15:46:51.690Z,18.70
2018-09-06T15:49:20.118Z,17.50
2018-09-06T15:51:48.593Z,17.87
2018-09-06T15:54:16.942Z,17.93
2018-09-06T15:56:45.354Z,18.97
2018-09-06T15:59:13.870Z,19.00
2018-09-06T16:01:42.276Z,19.77
2018-09-06T16:04:10.627Z,19.87
2018-09-06T16:06:38.996Z,20.10
2018-09-06T16:09:07.567Z,20.00
2018-09-06T16:11:36.010Z,19.60
2018-09-06T16:14:04.407Z,19.83
2018-09-06T16:16:32.742Z,19.57
2018-09-06T16:19:01.355Z,26.77
2018-09-06T16:21:29.734Z,25.83
2018-09-06T16:23:58.081Z,19.80
2018-09-06T16:26:26.496Z,19.60
2018-09-06T16:28:54.857Z,19.00
2018-09-06T16:31:23.193Z,19.53
2018-09-06T16:33:51.628Z,17.60
2018-09-06T16:36:19.998Z,21.10
2018-09-06T16:38:48.556Z,20.93
2018-09-06T16:41:16.904Z,19.87
2018-09-06T16:43:45.248Z,20.00
2018-09-06T16:46:13.970Z,20.80
2018-09-06T16:48:42.379Z,20.87
2018-09-06T16:51:10.758Z,23.70
2018-09-06T16:53:39.220Z,27.60
2018-09-06T16:56:07.626Z,33.20
2018-09-06T16:58:35.995Z,34.37
2018-09-06T17:01:04.361Z,28.43
2018-09-06T17:03:32.754Z,24.77
2018-09-06T17:06:01.110Z,22.50
2018-09-06T17:08:29.463Z,21.63
2018-09-06T17:10:57.857Z,20.27
2018-09-06T17:13:26.226Z,20.67
2018-09-06T17:15:54.594Z,22.37
2018-09-06T17:18:23.049Z,22.83
2018-09-06T17:20:51.410Z,22.20
2018-09-06T17:23:19.786Z,20.80
2018-09-06T17:25:48.239Z,21.67
2018-09-06T17:28:16.621Z,22.90
2018-09-06T17:30:44.961Z,23.03
2018-09-06T17:33:13.520Z,23.10
2018-09-06T17:35:41.895Z,24.47
2018-09-06T17:38:10.263Z,23.63
2018-09-06T17:40:38.657Z,23.47
2018-09-06T17:43:07.078Z,23.30
2018-09-06T17:45:35.448Z,22.47
2018-09-06T17:48:03.910Z,25.20
2018-09-06T17:50:32.664Z,22.30
2018-09-06T17:53:01.198Z,20.60
2018-09-06T17:55:29.591Z,21.33
2018-09-06T17:57:57.966Z,20.80
2018-09-06T18:00:26.442Z,18.93
2018-09-06T18:02:54.867Z,17.13
2018-09-06T18:05:23.260Z,20.90
2018-09-06T18:07:51.664Z,47.03
2018-09-06T18:10:20.110Z,37.03
2018-09-06T18:12:48.678Z,16.70
2018-09-06T18:15:17.263Z,15.83
2018-09-06T18:17:45.767Z,16.00
2018-09-06T18:20:14.021Z,15.73
2018-09-06T18:22:42.408Z,15.47
2018-09-06T18:25:10.840Z,15.47
2018-09-06T18:27:39.282Z,15.80
2018-09-06T18:30:07.698Z,14.70
2018-09-06T18:32:36.226Z,15.57
2018-09-06T18:35:04.654Z,16.33
2018-09-06T18:37:33.312Z,15.80
2018-09-06T18:40:01.723Z,16.50
2018-09-06T18:42:30.131Z,15.43
2018-09-06T18:44:58.539Z,15.60
2018-09-06T18:47:26.997Z,16.97
2018-09-06T18:49:55.386Z,16.40
2018-09-06T18:52:23.770Z,17.60
2018-09-06T18:54:52.185Z,16.80
2018-09-06T18:57:20.600Z,15.93
2018-09-06T18:59:48.958Z,17.77
2018-09-06T19:02:17.378Z,17.10
2018-09-06T19:04:45.713Z,15.23
2018-09-06T19:07:14.077Z,17.50
2018-09-06T19:09:42.623Z,16.23
2018-09-06T19:12:10.985Z,16.97
2018-09-06T19:14:39.331Z,16.77
2018-09-06T19:17:07.729Z,17.20
2018-09-06T19:19:36.073Z,16.57
2018-09-06T19:22:06.130Z,17.70
2018-09-06T19:24:36.091Z,18.33
2018-09-06T19:27:04.675Z,18.23
2018-09-06T19:29:33.831Z,24.23
2018-09-06T19:32:03.318Z,53.23
2018-09-06T19:34:32.686Z,31.10
2018-09-06T19:37:01.107Z,21.57
2018-09-06T19:39:31.778Z,20.17
2018-09-06T19:42:01.472Z,19.30
2018-09-06T19:44:30.068Z,18.40
2018-09-06T19:46:59.584Z,20.30
2018-09-06T19:49:29.322Z,19.30
2018-09-06T19:51:59.089Z,18.53
2018-09-06T19:54:28.467Z,20.80
2018-09-06T19:56:58.138Z,19.20
2018-09-06T19:59:26.539Z,20.40
2018-09-06T20:01:55.105Z,20.47
2018-09-06T20:04:23.458Z,20.60
2018-09-06T20:06:51.826Z,20.00
2018-09-06T20:09:20.231Z,20.20
2018-09-06T20:11:48.607Z,19.70
2018-09-06T20:14:16.989Z,47.70
2018-09-06T20:16:45.404Z,24.20
2018-09-06T20:19:13.785Z,23.27
2018-09-06T20:21:42.347Z,21.80
2018-09-06T20:24:11.334Z,22.13
2018-09-06T20:26:39.701Z,21.67
2018-09-06T20:29:08.123Z,22.57
2018-09-06T20:31:36.650Z,21.30
2018-09-06T20:34:05.142Z,22.33
2018-09-06T20:36:33.550Z,21.50
2018-09-06T20:39:01.942Z,24.27
2018-09-06T20:41:30.464Z,21.60
2018-09-06T20:43:58.874Z,22.87
2018-09-06T20:46:27.278Z,20.37
2018-09-06T20:48:55.673Z,23.67
2018-09-06T20:51:24.033Z,24.60
2018-09-06T20:53:52.514Z,22.90
2018-09-06T20:56:20.859Z,23.47
2018-09-06T20:58:49.249Z,25.27
2018-09-06T21:01:17.679Z,26.30
2018-09-06T21:03:46.086Z,26.87
2018-09-06T21:06:14.518Z,30.70
2018-09-06T21:08:42.882Z,29.90
2018-09-06T21:11:11.262Z,27.60
2018-09-06T21:13:39.630Z,26.27
2018-09-06T21:16:08.240Z,26.63
2018-09-06T21:18:36.622Z,28.57
2018-09-06T21:21:04.976Z,28.77
2018-09-06T21:23:33.489Z,29.10
2018-09-06T21:26:01.879Z,28.53
2018-09-06T21:28:30.280Z,29.87
2018-09-06T21:30:58.686Z,31.93
2018-09-06T21:33:27.082Z,30.17
2018-09-06T21:35:56.773Z,53.97
2018-09-06T21:38:25.293Z,53.47
2018-09-06T21:40:53.771Z,36.60
2018-09-06T21:43:22.161Z,33.23
2018-09-06T21:45:51.190Z,31.10
2018-09-06T21:48:19.597Z,31.20
2018-09-06T21:50:48.134Z,31.20
2018-09-06T21:53:16.478Z,31.70
2018-09-06T21:55:44.830Z,31.40
2018-09-06T21:58:13.216Z,32.77
2018-09-06T22:00:41.610Z,31.90
2018-09-06T22:03:15.315Z,33.33
2018-09-06T22:05:43.695Z,32.83
2018-09-06T22:08:12.045Z,34.40
2018-09-06T22:10:40.591Z,34.10
2018-09-06T22:13:09.022Z,33.53
2018-09-06T22:15:37.393Z,34.33
2018-09-06T22:18:05.992Z,34.40
2018-09-06T22:20:34.353Z,36.30
2018-09-06T22:23:02.745Z,36.27
2018-09-06T22:25:31.156Z,34.83
2018-09-06T22:27:59.563Z,35.77
2018-09-06T22:30:28.934Z,34.90
2018-09-06T22:32:57.302Z,35.17
2018-09-06T22:35:25.671Z,35.80
2018-09-06T22:37:54.057Z,37.63
2018-09-06T22:40:22.471Z,38.13
2018-09-06T22:42:51.022Z,34.90
2018-09-06T22:45:19.388Z,37.30
2018-09-06T22:47:47.777Z,36.50
2018-09-06T22:50:16.220Z,37.03
2018-09-06T22:52:44.577Z,38.37
2018-09-06T22:55:13.144Z,38.43
2018-09-06T22:57:41.539Z,36.97
2018-09-06T23:00:09.893Z,37.23
2018-09-06T23:16:50.602Z,37.87
2018-09-06T23:19:19.226Z,35.27
2018-09-06T23:21:47.639Z,36.33
2018-09-06T23:24:16.049Z,35.10
2018-09-06T23:26:44.543Z,38.03
2018-09-06T23:29:12.976Z,37.47
2018-09-06T23:31:41.436Z,36.90
2018-09-06T23:34:09.855Z,38.00
2018-09-06T23:36:38.324Z,36.67
2018-09-06T23:39:07.313Z,37.63
2018-09-06T23:41:35.747Z,35.90
2018-09-06T23:44:04.290Z,37.67
2018-09-06T23:46:32.734Z,39.77
2018-09-06T23:49:01.103Z,37.83
2018-09-06T23:51:29.453Z,38.53
2018-09-06T23:53:57.851Z,40.57
2018-09-06T23:56:26.209Z,36.80
2018-09-06T23:58:54.557Z,37.80
